sensor_id;sensor_type;location;lat;lon;timestamp;pressure;altitude;pressure_sealevel;temperature;humidity
34103;BME280;20381;54.498;18.206;2023-09-30T00:01:09;99477.84;;;17.18;100.00
34103;BME280;20381;54.498;18.206;2023-09-30T00:03:42;99479.73;;;17.14;100.00
34103;BME280;20381;54.498;18.206;2023-09-30T00:06:11;99483.23;;;17.11;100.00
34103;BME280;20381;54.498;18.206;2023-09-30T00:08:40;99484.69;;;17.10;100.00
34103;BME280;20381;54.498;18.206;2023-09-30T00:11:10;99479.48;;;17.09;100.00
34103;BME280;20381;54.498;18.206;2023-09-30T00:13:38;99479.66;;;17.07;100.00
34103;BME280;20381;54.498;18.206;2023-09-30T00:16:07;99477.75;;;17.04;100.00
34103;BME280;20381;54.498;18.206;2023-09-30T00:18:36;99472.67;;;17.01;100.00
34103;BME280;20381;54.498;18.206;2023-09-30T00:21:05;99472.65;;;17.00;100.00
34103;BME280;20381;54.498;18.206;2023-09-30T00:23:34;99469.46;;;16.98;100.00
34103;BME280;20381;54.498;18.206;2023-09-30T00:26:03;99464.45;;;16.96;100.00
34103;BME280;20381;54.498;18.206;2023-09-30T00:28:31;99467.19;;;16.93;100.00
34103;BME280;20381;54.498;18.206;2023-09-30T00:31:00;99466.16;;;16.93;100.00
34103;BME280;20381;54.498;18.206;2023-09-30T00:33:29;99466.09;;;16.91;100.00
34103;BME280;20381;54.498;18.206;2023-09-30T00:35:58;99466.75;;;16.92;100.00
34103;BME280;20381;54.498;18.206;2023-09-30T00:38:26;99465.45;;;16.90;100.00
34103;BME280;20381;54.498;18.206;2023-09-30T00:40:55;99462.03;;;16.91;100.00
34103;BME280;20381;54.498;18.206;2023-09-30T00:43:23;99463.30;;;16.89;100.00
34103;BME280;20381;54.498;18.206;2023-09-30T00:48:40;99471.48;;;16.83;100.00
34103;BME280;20381;54.498;18.206;2023-09-30T00:51:10;99471.57;;;16.82;100.00
34103;BME280;20381;54.498;18.206;2023-09-30T00:53:40;99475.56;;;16.77;100.00
34103;BME280;20381;54.498;18.206;2023-09-30T00:56:10;99476.11;;;16.77;100.00
34103;BME280;20381;54.498;18.206;2023-09-30T00:58:39;99469.96;;;16.77;100.00
34103;BME280;20381;54.498;18.206;2023-09-30T01:01:09;99467.61;;;16.75;100.00
34103;BME280;20381;54.498;18.206;2023-09-30T01:03:38;99462.84;;;16.71;100.00
34103;BME280;20381;54.498;18.206;2023-09-30T01:06:06;99462.73;;;16.66;100.00
34103;BME280;20381;54.498;18.206;2023-09-30T01:08:36;99467.23;;;16.62;100.00
34103;BME280;20381;54.498;18.206;2023-09-30T01:11:05;99474.98;;;16.58;100.00
34103;BME280;20381;54.498;18.206;2023-09-30T01:13:35;99474.95;;;16.55;100.00
34103;BME280;20381;54.498;18.206;2023-09-30T01:16:05;99478.67;;;16.53;100.00
34103;BME280;20381;54.498;18.206;2023-09-30T01:18:34;99475.80;;;16.51;100.00
34103;BME280;20381;54.498;18.206;2023-09-30T01:21:04;99473.89;;;16.53;100.00
34103;BME280;20381;54.498;18.206;2023-09-30T01:23:34;99475.83;;;16.51;100.00
34103;BME280;20381;54.498;18.206;2023-09-30T01:26:04;99482.23;;;16.52;100.00
34103;BME280;20381;54.498;18.206;2023-09-30T01:28:34;99485.77;;;16.56;100.00
34103;BME280;20381;54.498;18.206;2023-09-30T01:31:02;99487.86;;;16.59;100.00
34103;BME280;20381;54.498;18.206;2023-09-30T01:33:31;99480.85;;;16.61;100.00
34103;BME280;20381;54.498;18.206;2023-09-30T01:36:01;99469.98;;;16.61;100.00
34103;BME280;20381;54.498;18.206;2023-09-30T01:38:29;99467.42;;;16.60;100.00
34103;BME280;20381;54.498;18.206;2023-09-30T01:40:58;99459.98;;;16.58;100.00
34103;BME280;20381;54.498;18.206;2023-09-30T01:43:28;99462.84;;;16.55;100.00
34103;BME280;20381;54.498;18.206;2023-09-30T01:45:58;99463.30;;;16.56;100.00
34103;BME280;20381;54.498;18.206;2023-09-30T01:48:27;99462.88;;;16.64;100.00
34103;BME280;20381;54.498;18.206;2023-09-30T01:50:55;99459.59;;;16.72;100.00
34103;BME280;20381;54.498;18.206;2023-09-30T01:53:24;99462.81;;;16.79;100.00
34103;BME280;20381;54.498;18.206;2023-09-30T01:55:53;99470.04;;;16.86;100.00
34103;BME280;20381;54.498;18.206;2023-09-30T01:58:21;99471.09;;;16.92;100.00
34103;BME280;20381;54.498;18.206;2023-09-30T02:00:50;99474.55;;;17.00;100.00
34103;BME280;20381;54.498;18.206;2023-09-30T02:03:19;99475.85;;;17.06;100.00
34103;BME280;20381;54.498;18.206;2023-09-30T02:05:48;99476.02;;;17.10;100.00
34103;BME280;20381;54.498;18.206;2023-09-30T02:08:17;99480.23;;;17.15;100.00
34103;BME280;20381;54.498;18.206;2023-09-30T02:10:46;99479.52;;;17.17;100.00
34103;BME280;20381;54.498;18.206;2023-09-30T02:13:15;99479.44;;;17.20;100.00
34103;BME280;20381;54.498;18.206;2023-09-30T02:15:47;99477.79;;;17.24;100.00
34103;BME280;20381;54.498;18.206;2023-09-30T02:18:16;99473.95;;;17.26;100.00
34103;BME280;20381;54.498;18.206;2023-09-30T02:20:46;99479.02;;;17.29;100.00
34103;BME280;20381;54.498;18.206;2023-09-30T02:23:14;99477.94;;;17.31;100.00
34103;BME280;20381;54.498;18.206;2023-09-30T02:25:45;99480.59;;;17.33;100.00
34103;BME280;20381;54.498;18.206;2023-09-30T02:28:14;99486.95;;;17.35;100.00
34103;BME280;20381;54.498;18.206;2023-09-30T02:30:42;99481.64;;;17.35;100.00
34103;BME280;20381;54.498;18.206;2023-09-30T02:33:11;99483.39;;;17.35;100.00
34103;BME280;20381;54.498;18.206;2023-09-30T02:35:44;99487.06;;;17.38;100.00
34103;BME280;20381;54.498;18.206;2023-09-30T02:38:13;99487.84;;;17.41;100.00
34103;BME280;20381;54.498;18.206;2023-09-30T02:40:44;99488.11;;;17.42;100.00
34103;BME280;20381;54.498;18.206;2023-09-30T02:43:15;99493.20;;;17.45;100.00
34103;BME280;20381;54.498;18.206;2023-09-30T02:45:46;99494.98;;;17.45;100.00
34103;BME280;20381;54.498;18.206;2023-09-30T02:48:14;99494.98;;;17.44;100.00
34103;BME280;20381;54.498;18.206;2023-09-30T02:50:43;99495.45;;;17.45;100.00
34103;BME280;20381;54.498;18.206;2023-09-30T02:53:14;99490.13;;;17.48;100.00
34103;BME280;20381;54.498;18.206;2023-09-30T02:55:43;99492.52;;;17.51;100.00
34103;BME280;20381;54.498;18.206;2023-09-30T02:58:11;99499.43;;;17.53;100.00
34103;BME280;20381;54.498;18.206;2023-09-30T03:00:40;99500.65;;;17.53;100.00
34103;BME280;20381;54.498;18.206;2023-09-30T03:03:09;99504.49;;;17.49;100.00
34103;BME280;20381;54.498;18.206;2023-09-30T03:05:38;99521.99;;;17.37;100.00
34103;BME280;20381;54.498;18.206;2023-09-30T03:08:07;99531.06;;;17.19;100.00
34103;BME280;20381;54.498;18.206;2023-09-30T03:10:35;99536.89;;;17.06;100.00
34103;BME280;20381;54.498;18.206;2023-09-30T03:13:09;99548.30;;;16.95;100.00
34103;BME280;20381;54.498;18.206;2023-09-30T03:15:37;99555.75;;;16.85;100.00
34103;BME280;20381;54.498;18.206;2023-09-30T03:18:07;99562.41;;;16.74;100.00
34103;BME280;20381;54.498;18.206;2023-09-30T03:20:35;99564.27;;;16.62;100.00
34103;BME280;20381;54.498;18.206;2023-09-30T03:23:09;99562.48;;;16.39;100.00
34103;BME280;20381;54.498;18.206;2023-09-30T03:25:38;99572.45;;;16.22;100.00
34103;BME280;20381;54.498;18.206;2023-09-30T03:28:07;99570.78;;;16.14;100.00
34103;BME280;20381;54.498;18.206;2023-09-30T03:30:36;99578.99;;;16.07;100.00
34103;BME280;20381;54.498;18.206;2023-09-30T03:33:04;99583.22;;;15.98;100.00
34103;BME280;20381;54.498;18.206;2023-09-30T03:35:33;99584.23;;;15.88;100.00
34103;BME280;20381;54.498;18.206;2023-09-30T03:38:03;99595.13;;;15.83;100.00
34103;BME280;20381;54.498;18.206;2023-09-30T03:40:33;99593.75;;;15.80;100.00
34103;BME280;20381;54.498;18.206;2023-09-30T03:43:02;99595.64;;;15.71;100.00
34103;BME280;20381;54.498;18.206;2023-09-30T03:45:31;99601.13;;;15.64;100.00
34103;BME280;20381;54.498;18.206;2023-09-30T03:48:01;99607.48;;;15.57;100.00
34103;BME280;20381;54.498;18.206;2023-09-30T03:50:31;99612.08;;;15.51;100.00
34103;BME280;20381;54.498;18.206;2023-09-30T03:53:03;99610.53;;;15.48;100.00
34103;BME280;20381;54.498;18.206;2023-09-30T03:55:35;99609.83;;;15.42;100.00
34103;BME280;20381;54.498;18.206;2023-09-30T03:58:05;99617.47;;;15.36;100.00
34103;BME280;20381;54.498;18.206;2023-09-30T04:00:34;99619.45;;;15.33;100.00
34103;BME280;20381;54.498;18.206;2023-09-30T04:03:04;99618.45;;;15.30;100.00
34103;BME280;20381;54.498;18.206;2023-09-30T04:05:33;99624.70;;;15.26;100.00
34103;BME280;20381;54.498;18.206;2023-09-30T04:08:05;99633.39;;;15.22;100.00
34103;BME280;20381;54.498;18.206;2023-09-30T04:10:33;99640.32;;;15.18;100.00
34103;BME280;20381;54.498;18.206;2023-09-30T04:13:03;99641.20;;;15.15;100.00
34103;BME280;20381;54.498;18.206;2023-09-30T04:15:31;99641.85;;;15.13;100.00
34103;BME280;20381;54.498;18.206;2023-09-30T04:18:00;99644.23;;;15.12;100.00
34103;BME280;20381;54.498;18.206;2023-09-30T04:20:29;99645.83;;;15.11;100.00
34103;BME280;20381;54.498;18.206;2023-09-30T04:22:58;99650.15;;;15.12;100.00
34103;BME280;20381;54.498;18.206;2023-09-30T04:25:26;99654.80;;;15.11;100.00
34103;BME280;20381;54.498;18.206;2023-09-30T04:27:55;99660.98;;;15.11;100.00
34103;BME280;20381;54.498;18.206;2023-09-30T04:30:24;99663.98;;;15.07;100.00
34103;BME280;20381;54.498;18.206;2023-09-30T04:32:53;99667.60;;;15.03;100.00
34103;BME280;20381;54.498;18.206;2023-09-30T04:35:23;99673.11;;;15.02;100.00
34103;BME280;20381;54.498;18.206;2023-09-30T04:37:53;99671.10;;;15.00;100.00
34103;BME280;20381;54.498;18.206;2023-09-30T04:40:22;99678.54;;;14.96;100.00
34103;BME280;20381;54.498;18.206;2023-09-30T04:42:51;99684.77;;;14.92;100.00
34103;BME280;20381;54.498;18.206;2023-09-30T04:45:23;99690.36;;;14.85;100.00
34103;BME280;20381;54.498;18.206;2023-09-30T04:47:53;99690.29;;;14.78;100.00
34103;BME280;20381;54.498;18.206;2023-09-30T04:50:24;99687.98;;;14.67;100.00
34103;BME280;20381;54.498;18.206;2023-09-30T04:52:53;99697.23;;;14.54;100.00
34103;BME280;20381;54.498;18.206;2023-09-30T04:55:22;99699.53;;;14.40;100.00
34103;BME280;20381;54.498;18.206;2023-09-30T04:57:50;99707.80;;;14.28;100.00
34103;BME280;20381;54.498;18.206;2023-09-30T05:00:21;99707.13;;;14.16;100.00
34103;BME280;20381;54.498;18.206;2023-09-30T05:02:57;99718.95;;;14.06;100.00
34103;BME280;20381;54.498;18.206;2023-09-30T05:05:28;99726.54;;;13.96;100.00
34103;BME280;20381;54.498;18.206;2023-09-30T05:07:57;99728.92;;;13.86;100.00
34103;BME280;20381;54.498;18.206;2023-09-30T05:10:26;99727.41;;;13.77;100.00
34103;BME280;20381;54.498;18.206;2023-09-30T05:12:55;99735.07;;;13.68;100.00
34103;BME280;20381;54.498;18.206;2023-09-30T05:15:27;99737.92;;;13.61;100.00
34103;BME280;20381;54.498;18.206;2023-09-30T05:17:57;99743.45;;;13.57;100.00
34103;BME280;20381;54.498;18.206;2023-09-30T05:20:27;99742.47;;;13.53;100.00
34103;BME280;20381;54.498;18.206;2023-09-30T05:22:56;99744.94;;;13.49;100.00
34103;BME280;20381;54.498;18.206;2023-09-30T05:25:24;99747.95;;;13.49;100.00
34103;BME280;20381;54.498;18.206;2023-09-30T05:28:03;99749.13;;;13.55;100.00
34103;BME280;20381;54.498;18.206;2023-09-30T05:30:39;99749.85;;;13.67;100.00
34103;BME280;20381;54.498;18.206;2023-09-30T05:33:09;99749.21;;;13.75;100.00
34103;BME280;20381;54.498;18.206;2023-09-30T05:35:43;99754.86;;;13.83;100.00
34103;BME280;20381;54.498;18.206;2023-09-30T05:38:12;99759.67;;;13.90;100.00
34103;BME280;20381;54.498;18.206;2023-09-30T05:40:42;99763.03;;;13.95;100.00
34103;BME280;20381;54.498;18.206;2023-09-30T05:43:15;99766.67;;;13.98;100.00
34103;BME280;20381;54.498;18.206;2023-09-30T05:45:45;99767.23;;;14.10;100.00
34103;BME280;20381;54.498;18.206;2023-09-30T05:48:18;99772.75;;;14.25;100.00
34103;BME280;20381;54.498;18.206;2023-09-30T05:50:48;99778.65;;;14.34;100.00
34103;BME280;20381;54.498;18.206;2023-09-30T05:53:17;99777.88;;;14.47;100.00
34103;BME280;20381;54.498;18.206;2023-09-30T06:09:43;99791.73;;;14.97;100.00
34103;BME280;20381;54.498;18.206;2023-09-30T06:12:12;99795.19;;;15.04;100.00
34103;BME280;20381;54.498;18.206;2023-09-30T06:14:41;99794.30;;;14.95;100.00
34103;BME280;20381;54.498;18.206;2023-09-30T06:17:09;99795.67;;;14.88;100.00
34103;BME280;20381;54.498;18.206;2023-09-30T06:19:38;99794.02;;;14.91;100.00
34103;BME280;20381;54.498;18.206;2023-09-30T06:22:06;99802.77;;;14.94;100.00
34103;BME280;20381;54.498;18.206;2023-09-30T06:24:35;99802.69;;;14.95;100.00
34103;BME280;20381;54.498;18.206;2023-09-30T06:27:05;99799.41;;;15.03;100.00
34103;BME280;20381;54.498;18.206;2023-09-30T06:29:34;99803.21;;;15.15;99.99
34103;BME280;20381;54.498;18.206;2023-09-30T06:32:05;99804.46;;;15.28;99.89
34103;BME280;20381;54.498;18.206;2023-09-30T06:34:34;99805.52;;;15.44;99.80
34103;BME280;20381;54.498;18.206;2023-09-30T06:37:03;99807.58;;;15.60;99.64
34103;BME280;20381;54.498;18.206;2023-09-30T06:39:31;99802.85;;;15.74;99.45
34103;BME280;20381;54.498;18.206;2023-09-30T06:42:00;99804.13;;;15.91;99.27
34103;BME280;20381;54.498;18.206;2023-09-30T06:44:30;99809.17;;;16.12;99.31
34103;BME280;20381;54.498;18.206;2023-09-30T06:47:00;99807.05;;;16.30;98.99
34103;BME280;20381;54.498;18.206;2023-09-30T06:49:30;99813.22;;;16.48;98.76
34103;BME280;20381;54.498;18.206;2023-09-30T06:51:59;99818.31;;;16.63;98.51
34103;BME280;20381;54.498;18.206;2023-09-30T06:54:28;99815.11;;;16.76;98.09
34103;BME280;20381;54.498;18.206;2023-09-30T06:56:57;99817.95;;;16.83;97.82
34103;BME280;20381;54.498;18.206;2023-09-30T06:59:26;99822.30;;;16.87;97.60
34103;BME280;20381;54.498;18.206;2023-09-30T07:01:55;99821.40;;;16.94;97.74
34103;BME280;20381;54.498;18.206;2023-09-30T07:04:40;99822.71;;;17.10;97.57
34103;BME280;20381;54.498;18.206;2023-09-30T07:07:14;99820.35;;;17.35;97.63
34103;BME280;20381;54.498;18.206;2023-09-30T07:09:44;99821.92;;;17.63;97.51
34103;BME280;20381;54.498;18.206;2023-09-30T07:12:13;99829.56;;;17.89;97.18
34103;BME280;20381;54.498;18.206;2023-09-30T07:14:41;99831.52;;;18.09;96.58
34103;BME280;20381;54.498;18.206;2023-09-30T07:17:10;99833.55;;;18.31;96.63
34103;BME280;20381;54.498;18.206;2023-09-30T07:19:39;99840.96;;;18.53;95.86
34103;BME280;20381;54.498;18.206;2023-09-30T07:22:08;99836.06;;;18.89;96.54
34103;BME280;20381;54.498;18.206;2023-09-30T07:24:36;99842.73;;;19.20;95.85
34103;BME280;20381;54.498;18.206;2023-09-30T07:27:07;99848.14;;;19.16;94.65
34103;BME280;20381;54.498;18.206;2023-09-30T07:29:55;99845.81;;;18.86;93.98
34103;BME280;20381;54.498;18.206;2023-09-30T07:32:24;99856.27;;;18.63;93.76
34103;BME280;20381;54.498;18.206;2023-09-30T07:34:52;99852.34;;;18.43;93.34
34103;BME280;20381;54.498;18.206;2023-09-30T07:37:21;99857.44;;;18.20;92.90
34103;BME280;20381;54.498;18.206;2023-09-30T07:39:49;99859.40;;;18.27;93.20
34103;BME280;20381;54.498;18.206;2023-09-30T07:42:18;99862.05;;;18.45;93.35
34103;BME280;20381;54.498;18.206;2023-09-30T07:44:46;99863.21;;;18.59;92.76
34103;BME280;20381;54.498;18.206;2023-09-30T07:47:15;99865.68;;;18.89;92.36
34103;BME280;20381;54.498;18.206;2023-09-30T07:49:43;99867.70;;;19.14;92.49
34103;BME280;20381;54.498;18.206;2023-09-30T07:52:12;99871.89;;;19.34;91.92
34103;BME280;20381;54.498;18.206;2023-09-30T07:54:41;99874.69;;;19.86;92.96
34103;BME280;20381;54.498;18.206;2023-09-30T07:57:09;99874.63;;;20.29;91.66
34103;BME280;20381;54.498;18.206;2023-09-30T07:59:38;99875.23;;;20.53;90.94
34103;BME280;20381;54.498;18.206;2023-09-30T08:02:06;99877.17;;;21.02;91.07
34103;BME280;20381;54.498;18.206;2023-09-30T08:04:35;99877.75;;;21.75;91.03
34103;BME280;20381;54.498;18.206;2023-09-30T08:07:04;99881.77;;;22.33;90.79
34103;BME280;20381;54.498;18.206;2023-09-30T08:09:32;99883.23;;;23.02;89.97
34103;BME280;20381;54.498;18.206;2023-09-30T08:12:01;99880.36;;;23.88;90.34
34103;BME280;20381;54.498;18.206;2023-09-30T08:14:30;99872.96;;;25.01;89.55
34103;BME280;20381;54.498;18.206;2023-09-30T08:16:58;99871.88;;;25.31;87.90
34103;BME280;20381;54.498;18.206;2023-09-30T08:19:27;99878.54;;;24.54;84.81
34103;BME280;20381;54.498;18.206;2023-09-30T08:21:57;99881.77;;;23.62;85.04
34103;BME280;20381;54.498;18.206;2023-09-30T08:24:30;99889.14;;;23.11;85.02
34103;BME280;20381;54.498;18.206;2023-09-30T08:27:01;99896.25;;;22.84;84.56
34103;BME280;20381;54.498;18.206;2023-09-30T08:29:30;99897.77;;;24.25;88.19
34103;BME280;20381;54.498;18.206;2023-09-30T08:31:58;99894.48;;;26.91;85.76
34103;BME280;20381;54.498;18.206;2023-09-30T08:34:27;99900.60;;;27.19;80.94
34103;BME280;20381;54.498;18.206;2023-09-30T08:36:57;99900.52;;;26.67;79.47
34103;BME280;20381;54.498;18.206;2023-09-30T08:39:27;99906.39;;;25.69;78.84
34103;BME280;20381;54.498;18.206;2023-09-30T08:41:57;99909.05;;;24.69;77.53
34103;BME280;20381;54.498;18.206;2023-09-30T08:44:26;99917.13;;;23.75;77.19
34103;BME280;20381;54.498;18.206;2023-09-30T08:46:56;99920.84;;;23.44;76.68
34103;BME280;20381;54.498;18.206;2023-09-30T08:49:27;99922.92;;;23.14;75.87
34103;BME280;20381;54.498;18.206;2023-09-30T08:51:57;99921.06;;;23.31;76.30
34103;BME280;20381;54.498;18.206;2023-09-30T08:54:27;99920.84;;;24.80;76.09
34103;BME280;20381;54.498;18.206;2023-09-30T08:56:55;99919.59;;;24.94;73.51
34103;BME280;20381;54.498;18.206;2023-09-30T08:59:24;99925.02;;;24.45;72.97
34103;BME280;20381;54.498;18.206;2023-09-30T09:01:53;99920.20;;;25.60;74.96
34103;BME280;20381;54.498;18.206;2023-09-30T09:04:21;99924.30;;;27.21;72.62
34103;BME280;20381;54.498;18.206;2023-09-30T09:06:53;99923.40;;;28.43;72.99
34103;BME280;20381;54.498;18.206;2023-09-30T09:09:23;99922.71;;;29.19;70.50
34103;BME280;20381;54.498;18.206;2023-09-30T09:11:52;99925.02;;;28.83;68.87
34103;BME280;20381;54.498;18.206;2023-09-30T09:14:39;99933.71;;;27.45;67.03
34103;BME280;20381;54.498;18.206;2023-09-30T09:17:10;99933.56;;;26.52;67.29
34103;BME280;20381;54.498;18.206;2023-09-30T09:19:39;99940.28;;;26.44;66.02
34103;BME280;20381;54.498;18.206;2023-09-30T09:22:08;99942.23;;;25.65;65.05
34103;BME280;20381;54.498;18.206;2023-09-30T09:24:37;99944.85;;;24.99;64.32
34103;BME280;20381;54.498;18.206;2023-09-30T09:27:12;99945.16;;;26.08;66.66
34103;BME280;20381;54.498;18.206;2023-09-30T09:29:43;99947.15;;;27.52;63.80
34103;BME280;20381;54.498;18.206;2023-09-30T09:32:17;99941.81;;;27.39;63.48
34103;BME280;20381;54.498;18.206;2023-09-30T09:35:00;99937.99;;;29.13;64.35
34103;BME280;20381;54.498;18.206;2023-09-30T09:37:31;99938.00;;;29.39;61.41
34103;BME280;20381;54.498;18.206;2023-09-30T09:40:00;99936.11;;;28.22;60.33
34103;BME280;20381;54.498;18.206;2023-09-30T09:42:32;99941.44;;;27.23;60.06
34103;BME280;20381;54.498;18.206;2023-09-30T09:45:05;99938.41;;;26.38;59.83
34103;BME280;20381;54.498;18.206;2023-09-30T09:47:35;99939.66;;;25.79;59.42
34103;BME280;20381;54.498;18.206;2023-09-30T09:50:05;99946.41;;;25.10;58.71
34103;BME280;20381;54.498;18.206;2023-09-30T09:52:34;99949.08;;;24.41;58.32
34103;BME280;20381;54.498;18.206;2023-09-30T09:55:04;99950.21;;;24.87;59.66
34103;BME280;20381;54.498;18.206;2023-09-30T09:57:33;99948.13;;;26.73;58.87
34103;BME280;20381;54.498;18.206;2023-09-30T10:00:04;99947.18;;;26.94;57.57
34103;BME280;20381;54.498;18.206;2023-09-30T10:02:39;99950.56;;;26.23;56.92
34103;BME280;20381;54.498;18.206;2023-09-30T10:05:09;99961.45;;;25.23;53.44
34103;BME280;20381;54.498;18.206;2023-09-30T10:08:03;99969.84;;;24.09;53.18
34103;BME280;20381;54.498;18.206;2023-09-30T10:10:37;99974.06;;;22.87;52.89
34103;BME280;20381;54.498;18.206;2023-09-30T10:13:07;99976.20;;;21.91;53.08
34103;BME280;20381;54.498;18.206;2023-09-30T10:15:37;99980.50;;;21.33;53.35
34103;BME280;20381;54.498;18.206;2023-09-30T10:18:12;99984.71;;;21.11;53.76
34103;BME280;20381;54.498;18.206;2023-09-30T10:20:44;99978.65;;;21.17;53.83
34103;BME280;20381;54.498;18.206;2023-09-30T10:23:20;99976.31;;;21.78;54.77
34103;BME280;20381;54.498;18.206;2023-09-30T10:25:50;99980.13;;;24.84;55.89
34103;BME280;20381;54.498;18.206;2023-09-30T10:28:41;99972.59;;;26.70;54.22
34103;BME280;20381;54.498;18.206;2023-09-30T10:31:18;99979.02;;;26.60;54.23
34103;BME280;20381;54.498;18.206;2023-09-30T10:38:59;99975.06;;;30.31;53.24
34103;BME280;20381;54.498;18.206;2023-09-30T10:46:59;99979.71;;;29.05;49.90
34103;BME280;20381;54.498;18.206;2023-09-30T10:49:33;99981.55;;;28.13;50.05
34103;BME280;20381;54.498;18.206;2023-09-30T10:52:03;99987.22;;;28.42;50.54
34103;BME280;20381;54.498;18.206;2023-09-30T10:54:32;99978.98;;;29.29;50.14
34103;BME280;20381;54.498;18.206;2023-09-30T10:57:01;99981.33;;;29.51;48.39
34103;BME280;20381;54.498;18.206;2023-09-30T10:59:32;99988.33;;;28.00;47.61
34103;BME280;20381;54.498;18.206;2023-09-30T11:02:03;99992.19;;;26.68;47.33
34103;BME280;20381;54.498;18.206;2023-09-30T11:04:45;99996.33;;;25.59;47.12
34103;BME280;20381;54.498;18.206;2023-09-30T11:07:23;100001.48;;;24.51;46.53
34103;BME280;20381;54.498;18.206;2023-09-30T11:09:54;100003.85;;;23.53;46.74
34103;BME280;20381;54.498;18.206;2023-09-30T11:12:24;100001.30;;;23.61;47.44
34103;BME280;20381;54.498;18.206;2023-09-30T11:15:02;99994.34;;;25.57;48.57
34103;BME280;20381;54.498;18.206;2023-09-30T11:17:31;99996.55;;;28.88;48.74
34103;BME280;20381;54.498;18.206;2023-09-30T11:20:00;99993.98;;;30.65;47.82
34103;BME280;20381;54.498;18.206;2023-09-30T11:22:29;99994.80;;;30.16;46.86
34103;BME280;20381;54.498;18.206;2023-09-30T11:24:58;99995.08;;;29.30;46.78
34103;BME280;20381;54.498;18.206;2023-09-30T11:27:27;100001.53;;;28.95;46.26
34103;BME280;20381;54.498;18.206;2023-09-30T11:29:56;100002.16;;;27.69;45.45
34103;BME280;20381;54.498;18.206;2023-09-30T11:32:27;100008.35;;;26.40;45.37
34103;BME280;20381;54.498;18.206;2023-09-30T11:34:57;100002.84;;;25.52;45.48
34103;BME280;20381;54.498;18.206;2023-09-30T11:37:33;100005.75;;;26.11;45.72
34103;BME280;20381;54.498;18.206;2023-09-30T11:40:12;100001.20;;;28.27;46.14
34103;BME280;20381;54.498;18.206;2023-09-30T11:43:07;100001.19;;;29.10;44.93
34103;BME280;20381;54.498;18.206;2023-09-30T11:45:36;100002.12;;;28.54;44.71
34103;BME280;20381;54.498;18.206;2023-09-30T11:48:26;100004.33;;;27.50;44.31
34103;BME280;20381;54.498;18.206;2023-09-30T11:50:59;100002.69;;;26.23;43.89
34103;BME280;20381;54.498;18.206;2023-09-30T11:53:31;100009.45;;;25.21;43.78
34103;BME280;20381;54.498;18.206;2023-09-30T11:56:01;100002.31;;;26.03;44.97
34103;BME280;20381;54.498;18.206;2023-09-30T11:58:36;99997.06;;;27.48;44.10
34103;BME280;20381;54.498;18.206;2023-09-30T12:01:06;99999.64;;;27.30;44.00
34103;BME280;20381;54.498;18.206;2023-09-30T12:03:42;99996.21;;;28.31;44.18
34103;BME280;20381;54.498;18.206;2023-09-30T12:06:11;100000.02;;;29.30;44.06
34103;BME280;20381;54.498;18.206;2023-09-30T12:08:42;99999.34;;;30.47;44.20
34103;BME280;20381;54.498;18.206;2023-09-30T12:11:11;99991.77;;;30.79;42.93
34103;BME280;20381;54.498;18.206;2023-09-30T12:13:44;99990.02;;;31.07;42.60
34103;BME280;20381;54.498;18.206;2023-09-30T12:16:13;99992.13;;;30.08;40.50
34103;BME280;20381;54.498;18.206;2023-09-30T12:18:42;99993.85;;;28.59;39.72
34103;BME280;20381;54.498;18.206;2023-09-30T12:21:13;99998.05;;;27.25;38.89
34103;BME280;20381;54.498;18.206;2023-09-30T12:23:42;100003.36;;;26.12;38.74
34103;BME280;20381;54.498;18.206;2023-09-30T12:26:11;100010.80;;;25.25;38.88
34103;BME280;20381;54.498;18.206;2023-09-30T12:28:44;100006.98;;;25.07;38.98
34103;BME280;20381;54.498;18.206;2023-09-30T12:31:14;100013.17;;;25.16;38.88
34103;BME280;20381;54.498;18.206;2023-09-30T12:33:44;100015.63;;;24.87;39.02
34103;BME280;20381;54.498;18.206;2023-09-30T12:36:13;100012.64;;;24.32;39.50
34103;BME280;20381;54.498;18.206;2023-09-30T12:38:42;100013.11;;;24.04;39.58
34103;BME280;20381;54.498;18.206;2023-09-30T12:41:14;100012.57;;;23.71;40.08
34103;BME280;20381;54.498;18.206;2023-09-30T12:43:47;100017.08;;;23.61;40.25
34103;BME280;20381;54.498;18.206;2023-09-30T12:46:16;100014.66;;;23.35;40.51
34103;BME280;20381;54.498;18.206;2023-09-30T12:48:47;100016.72;;;22.87;40.35
34103;BME280;20381;54.498;18.206;2023-09-30T12:51:17;100023.52;;;22.11;40.68
34103;BME280;20381;54.498;18.206;2023-09-30T12:53:46;100023.21;;;21.51;40.96
34103;BME280;20381;54.498;18.206;2023-09-30T12:56:15;100026.58;;;20.99;40.95
34103;BME280;20381;54.498;18.206;2023-09-30T12:58:43;100030.36;;;20.61;41.71
34103;BME280;20381;54.498;18.206;2023-09-30T13:01:12;100026.11;;;20.51;42.01
34103;BME280;20381;54.498;18.206;2023-09-30T13:03:50;100021.77;;;20.33;42.25
34103;BME280;20381;54.498;18.206;2023-09-30T13:06:20;100015.92;;;20.09;42.69
34103;BME280;20381;54.498;18.206;2023-09-30T13:08:49;100020.02;;;19.74;42.92
34103;BME280;20381;54.498;18.206;2023-09-30T13:11:17;100019.73;;;19.37;43.61
34103;BME280;20381;54.498;18.206;2023-09-30T13:13:46;100022.16;;;19.09;44.18
34103;BME280;20381;54.498;18.206;2023-09-30T13:16:15;100022.11;;;18.93;44.65
34103;BME280;20381;54.498;18.206;2023-09-30T13:18:44;100021.98;;;18.97;44.83
34103;BME280;20381;54.498;18.206;2023-09-30T13:21:13;100026.08;;;18.92;45.42
34103;BME280;20381;54.498;18.206;2023-09-30T13:23:43;100031.95;;;18.92;46.24
34103;BME280;20381;54.498;18.206;2023-09-30T13:26:12;100025.64;;;19.00;46.34